Time;durP1;ratioP1;P1;durP2;ratioP2;P2;SDS_P1;SDS_P2;PMS_P1;PMS_P2;Temp;Humidity;BMP_temperature;BMP_pressure;BME280_temperature;BME280_humidity;BME280_pressure;Samples;Min_cycle;Max_cycle;Signal;HPM_P1;HPM_P2
2022/05/23 00:01:51;;;;;;;1.85;0.30;;;18.50;57.00;;;;;;5046056;28;20057;-82
2022/05/23 00:04:21;;;;;;;1.40;0.22;;;18.50;57.00;;;;;;5051885;28;20044;-82
2022/05/23 00:06:51;;;;;;;1.27;0.30;;;18.50;57.00;;;;;;5058384;28;20048;-82
2022/05/23 00:09:18;;;;;;;0.63;0.30;;;18.40;57.00;;;;;;5051752;28;20048;-82
2022/05/23 00:11:45;;;;;;;2.88;0.40;;;18.40;57.10;;;;;;5047360;28;20460;-82
2022/05/23 00:14:13;;;;;;;0.98;0.30;;;18.40;57.20;;;;;;5028658;28;20404;-82
2022/05/23 00:16:45;;;;;;;1.35;0.32;;;18.30;57.30;;;;;;5043981;28;20652;-83
2022/05/23 00:19:13;;;;;;;1.48;0.20;;;18.30;57.30;;;;;;5063291;28;20060;-81
2022/05/23 00:21:42;;;;;;;2.28;0.30;;;18.30;57.40;;;;;;5023548;28;20102;-82
2022/05/23 00:24:10;;;;;;;0.70;0.30;;;18.20;57.50;;;;;;5054119;28;20037;-82
2022/05/23 00:26:39;;;;;;;1.15;0.30;;;18.20;57.50;;;;;;5037357;28;20060;-81
2022/05/23 00:29:06;;;;;;;1.23;0.30;;;18.20;57.60;;;;;;5045176;28;20414;-82
2022/05/23 00:31:34;;;;;;;1.52;0.40;;;18.20;57.60;;;;;;5033837;28;20483;-82
2022/05/23 00:36:47;;;;;;;1.55;0.20;;;18.10;57.80;;;;;;5067831;28;20094;-82
2022/05/23 00:39:17;;;;;;;1.90;0.40;;;18.10;57.90;;;;;;5033492;28;20055;-82
2022/05/23 00:44:34;;;;;;;3.38;0.50;;;18.10;58.10;;;;;;5053369;28;20063;-82
2022/05/23 00:47:21;;;;;;;2.28;0.50;;;18.00;58.20;;;;;;5055632;28;20063;-82
2022/05/23 00:49:48;;;;;;;1.95;0.30;;;18.00;58.30;;;;;;5052003;28;20060;-81
2022/05/23 00:52:29;;;;;;;2.50;0.50;;;17.90;59.00;;;;;;5060576;28;20048;-82
2022/05/23 00:54:59;;;;;;;1.88;0.30;;;17.90;58.40;;;;;;5049719;28;20044;-81
2022/05/23 00:57:34;;;;;;;3.13;0.50;;;17.80;58.50;;;;;;5057892;28;20048;-82
2022/05/23 01:00:07;;;;;;;2.70;0.40;;;17.90;58.60;;;;;;5054383;28;20048;-82
2022/05/23 01:02:36;;;;;;;1.05;0.30;;;17.80;58.70;;;;;;5044814;28;20570;-82
2022/05/23 01:05:08;;;;;;;0.80;0.30;;;17.80;58.70;;;;;;5061334;28;20040;-83
2022/05/23 01:07:35;;;;;;;1.15;0.40;;;17.80;58.80;;;;;;5059197;28;20080;-82
2022/05/23 01:10:04;;;;;;;1.40;0.40;;;17.70;58.80;;;;;;5052620;28;20040;-82
2022/05/23 01:12:31;;;;;;;1.98;0.47;;;17.70;58.90;;;;;;5066336;28;20090;-81
2022/05/23 01:15:00;;;;;;;1.88;0.50;;;17.70;59.00;;;;;;5023848;28;20049;-81
2022/05/23 01:17:29;;;;;;;1.80;0.40;;;17.70;59.10;;;;;;5041199;28;20047;-82
2022/05/23 01:20:07;;;;;;;2.08;0.50;;;17.60;59.10;;;;;;5046371;28;20060;-82
2022/05/23 01:22:56;;;;;;;0.85;0.32;;;17.60;59.30;;;;;;5033407;28;20453;-83
2022/05/23 01:25:44;;;;;;;2.03;0.40;;;17.50;59.30;;;;;;5052024;28;20502;-82
2022/05/23 01:28:37;;;;;;;1.55;0.50;;;17.40;59.40;;;;;;5061836;28;20121;-82
2022/05/23 01:31:09;;;;;;;1.23;0.43;;;17.50;59.60;;;;;;5050111;28;20045;-82
2022/05/23 01:33:37;;;;;;;1.77;0.30;;;17.40;59.60;;;;;;5057267;28;20048;-81
2022/05/23 01:36:10;;;;;;;1.48;0.50;;;17.40;59.70;;;;;;5038951;28;20043;-81
2022/05/23 01:38:37;;;;;;;1.38;0.30;;;17.40;59.80;;;;;;5056326;28;20049;-82
2022/05/23 01:41:18;;;;;;;1.90;0.30;;;17.30;59.90;;;;;;5044367;28;20068;-83
2022/05/23 01:43:54;;;;;;;3.42;0.40;;;17.30;60.00;;;;;;5048591;28;20037;-82
2022/05/23 01:46:31;;;;;;;1.67;0.50;;;17.30;60.00;;;;;;5014681;28;20064;-81
2022/05/23 01:49:15;;;;;;;2.95;0.80;;;17.30;60.00;;;;;;5028517;28;20072;-82
2022/05/23 01:51:43;;;;;;;0.90;0.35;;;17.30;60.10;;;;;;5043373;28;20051;-80
2022/05/23 01:54:12;;;;;;;1.52;0.40;;;17.30;60.20;;;;;;5037848;28;20102;-79
2022/05/23 01:56:40;;;;;;;0.98;0.40;;;17.30;60.30;;;;;;5032863;28;20040;-80
2022/05/23 02:02:00;;;;;;;1.52;0.40;;;17.20;60.50;;;;;;5055240;28;20080;-81
2022/05/23 02:04:33;;;;;;;0.65;0.40;;;17.20;60.60;;;;;;5047028;28;20119;-80
2022/05/23 02:07:00;;;;;;;1.02;0.40;;;17.10;60.70;;;;;;5040056;28;20066;-80
2022/05/23 02:09:33;;;;;;;1.20;0.40;;;17.10;61.40;;;;;;5015572;28;20549;-79
2022/05/23 02:12:21;;;;;;;2.03;0.50;;;17.10;60.90;;;;;;5050647;28;20061;-79
2022/05/23 02:14:51;;;;;;;1.30;0.30;;;17.00;61.70;;;;;;5053335;28;20049;-80
2022/05/23 02:17:37;;;;;;;1.10;0.30;;;17.00;61.10;;;;;;5055778;28;20056;-81
2022/05/23 02:20:06;;;;;;;2.00;0.45;;;17.00;61.30;;;;;;5051913;28;20041;-80
2022/05/23 02:22:33;;;;;;;4.18;0.43;;;16.90;61.30;;;;;;5052244;28;20376;-80
2022/05/23 02:25:25;;;;;;;1.77;0.40;;;16.90;61.50;;;;;;5045783;28;20402;-80
2022/05/23 02:27:53;;;;;;;1.63;0.30;;;16.90;61.50;;;;;;5044167;28;20186;-81
2022/05/23 02:30:21;;;;;;;2.47;0.40;;;16.90;61.70;;;;;;5019206;28;20057;-81
2022/05/23 02:32:49;;;;;;;1.08;0.50;;;16.90;61.80;;;;;;5035336;28;20048;-81
2022/05/23 02:35:18;;;;;;;0.88;0.30;;;16.80;61.90;;;;;;5062200;28;20494;-81
2022/05/23 02:37:46;;;;;;;1.20;0.40;;;16.80;62.00;;;;;;5054780;28;20045;-80
2022/05/23 02:40:15;;;;;;;1.38;0.40;;;16.80;62.10;;;;;;5050888;28;20481;-81
2022/05/23 02:42:43;;;;;;;1.98;0.60;;;16.80;62.20;;;;;;5018670;28;20053;-81
2022/05/23 02:45:10;;;;;;;4.03;0.60;;;16.70;62.30;;;;;;5043478;28;20048;-80
2022/05/23 02:47:43;;;;;;;1.02;0.45;;;16.70;62.40;;;;;;5050894;28;20465;-81
2022/05/23 02:50:13;;;;;;;1.85;0.40;;;16.70;62.50;;;;;;5036127;28;20049;-80
2022/05/23 02:52:44;;;;;;;2.65;0.40;;;16.70;62.60;;;;;;5042157;28;20071;-81
2022/05/23 02:55:15;;;;;;;1.52;0.50;;;16.60;62.70;;;;;;5053851;28;20047;-81
2022/05/23 02:57:43;;;;;;;2.25;0.40;;;16.60;62.80;;;;;;5003376;28;20033;-81
2022/05/23 03:00:25;;;;;;;2.60;0.82;;;16.60;62.90;;;;;;5034209;28;20402;-80
2022/05/23 03:03:01;;;;;;;1.38;0.40;;;16.60;62.90;;;;;;5057322;28;20036;-81
2022/05/23 03:05:47;;;;;;;1.55;0.40;;;16.60;63.00;;;;;;5055341;28;20152;-81
2022/05/23 03:08:22;;;;;;;2.20;0.35;;;16.60;63.10;;;;;;5054282;28;20055;-81
2022/05/23 03:10:51;;;;;;;2.20;0.57;;;16.50;63.20;;;;;;5053001;28;20045;-81
2022/05/23 03:13:22;;;;;;;1.02;0.40;;;16.50;63.30;;;;;;5038476;28;20041;-79
2022/05/23 03:15:50;;;;;;;1.25;0.40;;;16.50;63.40;;;;;;5034511;28;20040;-80
2022/05/23 03:18:20;;;;;;;1.67;0.47;;;16.50;63.50;;;;;;5042040;28;20091;-80
2022/05/23 03:20:59;;;;;;;1.63;0.60;;;16.50;63.60;;;;;;5054668;28;20061;-81
2022/05/23 03:29:00;;;;;;;1.60;0.60;;;16.40;63.80;;;;;;5050871;28;20100;-81
2022/05/23 03:31:29;;;;;;;1.90;0.40;;;16.40;63.80;;;;;;5028617;28;20095;-81
2022/05/23 03:33:57;;;;;;;1.30;0.60;;;16.40;63.90;;;;;;5048158;28;20051;-80
2022/05/23 03:36:24;;;;;;;1.20;0.50;;;16.40;64.00;;;;;;5049631;28;20048;-80
2022/05/23 03:38:51;;;;;;;2.25;0.60;;;16.40;64.10;;;;;;5058750;28;20040;-82
2022/05/23 03:41:18;;;;;;;2.38;0.50;;;16.40;64.20;;;;;;5050048;28;20064;-80
2022/05/23 03:43:45;;;;;;;0.80;0.47;;;16.40;64.30;;;;;;5056552;28;20106;-81
2022/05/23 03:46:13;;;;;;;1.85;0.50;;;16.40;64.40;;;;;;5019633;28;20545;-80
2022/05/23 03:48:41;;;;;;;1.25;0.50;;;16.30;64.50;;;;;;5056081;28;20044;-80
2022/05/23 03:51:11;;;;;;;1.63;0.73;;;16.30;64.50;;;;;;5044870;28;20045;-81
2022/05/23 03:53:38;;;;;;;1.52;0.50;;;16.30;64.60;;;;;;5044243;28;20060;-80
2022/05/23 03:56:10;;;;;;;1.17;0.50;;;16.30;64.60;;;;;;5009791;28;20086;-81
2022/05/23 03:58:47;;;;;;;1.85;0.63;;;16.30;64.70;;;;;;5022593;28;20056;-80
2022/05/23 04:01:27;;;;;;;1.40;0.57;;;16.30;64.80;;;;;;5018571;28;20048;-80
2022/05/23 04:03:58;;;;;;;2.60;0.80;;;16.30;64.90;;;;;;5039459;28;20123;-81
2022/05/23 04:06:35;;;;;;;2.47;0.77;;;16.30;64.90;;;;;;5054996;28;20563;-81
2022/05/23 04:09:05;;;;;;;;;;;16.30;65.00;;;;;;5053608;28;20045;-80
2022/05/23 04:11:34;;;;;;;2.15;0.73;;;16.30;64.90;;;;;;5059053;28;19921;-80
2022/05/23 04:14:02;;;;;;;1.23;0.50;;;16.30;65.10;;;;;;5007967;28;20495;-81
2022/05/23 04:16:36;;;;;;;0.98;0.50;;;16.30;65.10;;;;;;5047184;28;20506;-81
2022/05/23 04:19:08;;;;;;;1.83;0.73;;;16.30;65.20;;;;;;5047524;28;20049;-81
2022/05/23 04:21:44;;;;;;;1.50;0.43;;;16.30;65.20;;;;;;5037058;28;20049;-80
2022/05/23 04:24:19;;;;;;;1.63;0.60;;;16.30;65.30;;;;;;5053016;28;20408;-81
2022/05/23 04:26:57;;;;;;;0.70;0.40;;;16.40;65.40;;;;;;5022335;28;20049;-81
2022/05/23 04:29:27;;;;;;;2.22;0.60;;;16.40;65.40;;;;;;5024696;28;20036;-81
2022/05/23 04:31:55;;;;;;;1.70;0.68;;;16.40;65.40;;;;;;5017400;28;20041;-80
2022/05/23 04:37:18;;;;;;;2.60;0.77;;;16.40;65.50;;;;;;5040222;28;20036;-80
2022/05/23 04:39:48;;;;;;;2.65;0.75;;;16.40;65.50;;;;;;5040562;28;20106;-81
2022/05/23 04:42:15;;;;;;;4.35;0.80;;;16.40;65.60;;;;;;5030668;28;20049;-81
2022/05/23 04:44:45;;;;;;;2.80;0.90;;;16.50;65.70;;;;;;5012777;28;20056;-81
2022/05/23 04:50:10;;;;;;;2.88;0.80;;;16.50;65.70;;;;;;5054674;28;20106;-80
2022/05/23 04:52:42;;;;;;;1.95;0.70;;;16.60;65.70;;;;;;5052518;28;20454;-80
2022/05/23 04:55:12;;;;;;;2.65;1.00;;;16.60;65.70;;;;;;5058568;28;20041;-81
2022/05/23 04:57:39;;;;;;;2.25;0.98;;;16.70;65.70;;;;;;5062876;28;20037;-81
2022/05/23 05:00:09;;;;;;;2.55;0.77;;;16.70;65.70;;;;;;5027559;28;20041;-80
2022/05/23 05:02:42;;;;;;;1.88;0.68;;;16.70;65.70;;;;;;5044106;28;20048;-80
2022/05/23 05:05:10;;;;;;;2.13;0.85;;;16.80;65.70;;;;;;5011153;28;20102;-80
2022/05/23 05:07:49;;;;;;;3.70;1.00;;;16.80;65.70;;;;;;5054908;28;20044;-80
2022/05/23 05:10:17;;;;;;;2.30;1.02;;;16.90;65.70;;;;;;5041596;28;20836;-81
2022/05/23 05:12:45;;;;;;;1.92;0.85;;;16.90;65.60;;;;;;5023107;28;20047;-81
2022/05/23 05:15:17;;;;;;;1.92;0.70;;;17.00;65.70;;;;;;5036942;28;20132;-81
2022/05/23 05:17:44;;;;;;;2.25;0.73;;;17.00;65.60;;;;;;5029930;28;20041;-82
2022/05/23 05:20:13;;;;;;;3.00;0.93;;;17.10;65.70;;;;;;5038557;28;20700;-80
2022/05/23 05:22:58;;;;;;;1.60;0.70;;;17.10;65.60;;;;;;5064291;28;20044;-80
2022/05/23 05:25:44;;;;;;;2.33;0.90;;;17.20;65.60;;;;;;5052784;28;20060;-81
2022/05/23 05:28:16;;;;;;;;;;;17.20;65.50;;;;;;5039873;28;20072;-80
2022/05/23 05:30:49;;;;;;;4.20;1.10;;;17.20;65.40;;;;;;5039082;28;19920;-81
2022/05/23 05:33:27;;;;;;;2.22;1.20;;;17.30;65.60;;;;;;5042887;28;20550;-80
2022/05/23 05:35:56;;;;;;;3.20;0.93;;;17.30;65.50;;;;;;5049825;28;20503;-81
2022/05/23 05:38:37;;;;;;;2.10;0.95;;;17.40;65.50;;;;;;5065542;28;20055;-81
2022/05/23 05:41:09;;;;;;;2.08;0.95;;;17.50;65.40;;;;;;5062836;28;20041;-80
2022/05/23 05:43:40;;;;;;;;;;;17.60;65.40;;;;;;5059121;28;20053;-81
2022/05/23 05:46:16;;;;;;;3.25;1.23;;;17.60;65.30;;;;;;5054321;28;19960;-81
2022/05/23 05:48:50;;;;;;;2.35;1.25;;;17.70;65.30;;;;;;5055009;28;20049;-79
2022/05/23 05:51:21;;;;;;;3.78;1.52;;;17.80;65.20;;;;;;5055497;28;20044;-81
2022/05/23 05:54:15;;;;;;;2.78;1.30;;;17.90;65.10;;;;;;5056776;28;20037;-80
2022/05/23 05:56:51;;;;;;;4.03;1.58;;;18.00;64.90;;;;;;5071438;28;20524;-81
2022/05/23 05:59:19;;;;;;;1.92;0.90;;;18.20;64.80;;;;;;5054770;28;20052;-81
2022/05/23 06:01:46;;;;;;;3.90;1.20;;;18.30;64.70;;;;;;5035642;28;20496;-80
2022/05/23 06:04:16;;;;;;;4.30;1.33;;;18.40;64.70;;;;;;5043636;28;20053;-79
2022/05/23 06:12:35;;;;;;;3.15;1.80;;;18.70;64.40;;;;;;5055629;28;20041;-81
2022/05/23 06:15:28;;;;;;;;;;;18.70;64.30;;;;;;5052343;28;20053;-81
2022/05/23 06:17:55;;;;;;;4.25;1.20;;;18.70;64.30;;;;;;5034952;28;19967;-81
2022/05/23 06:20:23;;;;;;;1.95;1.25;;;18.80;64.40;;;;;;5049766;28;20515;-81
2022/05/23 06:22:51;;;;;;;2.80;1.25;;;18.80;64.40;;;;;;5051695;28;20095;-81
2022/05/23 06:25:19;;;;;;;3.08;1.70;;;18.80;64.40;;;;;;5062087;28;20056;-82
2022/05/23 06:27:51;;;;;;;3.65;1.42;;;18.90;64.40;;;;;;5063424;28;20082;-82
2022/05/23 06:30:21;;;;;;;4.57;1.90;;;18.90;64.40;;;;;;5037765;28;20041;-81
2022/05/23 06:32:54;;;;;;;4.03;1.10;;;18.90;64.40;;;;;;5054698;28;20064;-81
2022/05/23 06:35:53;;;;;;;5.22;1.48;;;19.00;64.40;;;;;;5038105;28;20053;-81
2022/05/23 06:38:25;;;;;;;2.58;1.00;;;19.00;64.40;;;;;;5044046;28;20045;-81
2022/05/23 06:41:06;;;;;;;2.40;1.20;;;19.10;64.40;;;;;;5051785;28;20045;-79
2022/05/23 06:43:56;;;;;;;3.05;1.23;;;19.20;64.30;;;;;;5023055;28;20140;-82
2022/05/23 06:47:02;;;;;;;1.90;1.00;;;19.20;64.20;;;;;;4992134;28;20050;-82
2022/05/23 06:49:47;;;;;;;3.50;1.20;;;19.30;64.10;;;;;;4983524;28;20389;-82
2022/05/23 06:52:34;;;;;;;3.28;1.13;;;19.40;64.10;;;;;;5042209;28;20072;-82
2022/05/23 06:55:27;;;;;;;2.17;1.10;;;19.50;64.00;;;;;;5044368;28;20493;-80
2022/05/23 06:57:55;;;;;;;2.92;1.17;;;19.50;64.00;;;;;;5045394;28;20040;-82
2022/05/23 07:00:25;;;;;;;2.92;1.42;;;19.60;64.00;;;;;;5033829;28;20055;-82
2022/05/23 07:03:07;;;;;;;2.20;1.23;;;19.70;63.90;;;;;;5013786;28;20483;-80
2022/05/23 07:14:16;;;;;;;2.58;1.17;;;20.00;63.70;;;;;;5055084;28;20490;-82
2022/05/23 07:16:50;;;;;;;2.85;1.20;;;20.10;63.50;;;;;;5065760;28;20041;-81
2022/05/23 07:19:26;;;;;;;3.40;0.88;;;20.30;63.40;;;;;;5053796;28;20092;-82
2022/05/23 07:22:02;;;;;;;2.83;1.52;;;20.40;63.10;;;;;;5046596;28;20443;-82
2022/05/23 07:24:38;;;;;;;3.22;1.13;;;20.50;63.00;;;;;;5064225;28;20068;-82
2022/05/23 07:27:12;;;;;;;2.28;0.80;;;20.70;62.90;;;;;;5053138;28;20052;-80
2022/05/23 07:29:40;;;;;;;2.10;1.13;;;20.70;62.80;;;;;;5030196;28;20072;-82
2022/05/23 07:32:15;;;;;;;2.38;1.20;;;20.80;62.70;;;;;;5045531;28;20537;-80
2022/05/23 07:34:44;;;;;;;5.60;1.17;;;20.90;62.70;;;;;;5037541;28;20043;-80
2022/05/23 07:37:11;;;;;;;1.90;1.10;;;20.90;62.50;;;;;;5047705;28;20127;-79
2022/05/23 07:39:42;;;;;;;2.13;1.00;;;21.10;62.20;;;;;;5050074;28;20135;-81
2022/05/23 07:42:33;;;;;;;2.47;1.20;;;21.30;62.00;;;;;;5042253;28;20086;-82
2022/05/23 07:45:05;;;;;;;2.50;1.10;;;21.50;61.70;;;;;;5060416;28;20064;-80
2022/05/23 07:47:34;;;;;;;1.80;0.73;;;21.60;61.40;;;;;;5048027;28;20132;-81
2022/05/23 07:50:16;;;;;;;;;;;21.60;61.20;;;;;;5056393;28;20041;-81
2022/05/23 08:00:30;;;;;;;3.00;1.42;;;21.60;61.30;;;;;;5027924;28;19966;-81
2022/05/23 08:01:11;;;;;;;1.90;0.68;;;21.80;60.80;;;;;;5049465;28;20140;-82
2022/05/23 08:03:51;;;;;;;2.70;1.05;;;21.80;60.70;;;;;;5051090;28;20056;-86
2022/05/23 08:06:25;;;;;;;3.55;1.08;;;21.80;60.40;;;;;;5048152;28;20135;-84
2022/05/23 08:09:03;;;;;;;2.40;0.85;;;21.80;60.20;;;;;;5051947;28;20653;-88
2022/05/23 08:11:31;;;;;;;1.70;0.80;;;21.80;60.10;;;;;;5053630;28;20399;-86
2022/05/23 08:14:11;;;;;;;2.50;0.90;;;21.90;60.00;;;;;;5052892;28;20045;-85
2022/05/23 08:16:54;;;;;;;1.42;0.55;;;21.90;60.00;;;;;;5050847;28;20510;-86
2022/05/23 08:19:37;;;;;;;1.80;0.82;;;22.00;59.80;;;;;;5052644;28;20524;-87
2022/05/23 08:22:22;;;;;;;1.75;1.08;;;22.10;59.60;;;;;;5031151;28;20048;-85
2022/05/23 08:24:59;;;;;;;2.75;0.80;;;22.20;59.50;;;;;;5054759;28;20068;-85
2022/05/23 08:27:27;;;;;;;3.10;1.33;;;22.30;59.30;;;;;;5047579;28;20045;-86
2022/05/23 08:29:57;;;;;;;1.90;1.00;;;22.60;58.80;;;;;;5052111;28;20151;-84
2022/05/23 08:32:33;;;;;;;1.48;0.90;;;22.80;58.40;;;;;;5053122;28;20076;-84
2022/05/23 08:35:17;;;;;;;2.22;0.90;;;23.20;58.10;;;;;;5028096;28;20110;-87
2022/05/23 08:38:12;;;;;;;2.00;1.00;;;23.30;57.80;;;;;;5069265;28;20053;-91
2022/05/23 08:41:14;;;;;;;2.65;1.20;;;23.60;57.50;;;;;;5043805;28;20041;-82
2022/05/23 08:44:02;;;;;;;1.80;0.70;;;23.90;57.10;;;;;;5058384;28;20049;-87
2022/05/23 08:47:11;;;;;;;1.88;0.90;;;24.10;56.80;;;;;;5062687;28;20502;-83
2022/05/23 08:49:47;;;;;;;3.03;0.80;;;24.20;56.30;;;;;;5025575;28;20498;-83
2022/05/23 08:52:25;;;;;;;2.38;0.82;;;24.30;56.40;;;;;;5043105;28;20087;-83
2022/05/23 08:55:10;;;;;;;3.03;0.98;;;24.40;56.20;;;;;;5050437;28;20036;-83
2022/05/23 08:58:22;;;;;;;2.67;1.00;;;24.30;56.20;;;;;;5061231;28;20071;-81
2022/05/23 09:01:11;;;;;;;2.20;0.95;;;24.10;56.50;;;;;;5061860;28;20099;-84
2022/05/23 09:04:13;;;;;;;1.80;0.70;;;24.00;56.70;;;;;;5044286;28;20582;-84
2022/05/23 09:06:48;;;;;;;2.53;1.10;;;23.90;56.80;;;;;;5052175;28;20098;-83
2022/05/23 09:09:19;;;;;;;2.80;0.98;;;23.90;56.80;;;;;;5057290;28;20041;-84
2022/05/23 09:12:09;;;;;;;1.75;1.02;;;23.90;56.70;;;;;;5051550;28;20601;-84
2022/05/23 09:14:42;;;;;;;2.78;0.90;;;23.90;56.70;;;;;;5066592;28;20115;-83
2022/05/23 09:17:26;;;;;;;1.58;0.75;;;23.80;56.90;;;;;;5051250;28;20037;-83
2022/05/23 09:20:11;;;;;;;2.47;0.60;;;23.90;56.90;;;;;;5040001;28;20415;-82
2022/05/23 09:22:52;;;;;;;1.83;0.93;;;23.90;56.70;;;;;;5067710;28;20041;-83
2022/05/23 09:25:22;;;;;;;1.30;0.63;;;24.00;56.70;;;;;;5055209;28;20045;-84
2022/05/23 09:28:08;;;;;;;2.35;0.95;;;23.90;56.70;;;;;;5062121;28;20048;-84
2022/05/23 09:30:46;;;;;;;2.95;1.10;;;23.90;56.70;;;;;;5058274;28;20057;-83
2022/05/23 09:33:20;;;;;;;2.65;1.23;;;23.80;56.80;;;;;;5053577;28;20044;-82
2022/05/23 09:35:55;;;;;;;2.20;0.90;;;23.80;56.70;;;;;;5061307;28;20074;-82
2022/05/23 09:38:27;;;;;;;2.95;0.90;;;23.90;56.80;;;;;;5055776;28;20037;-80
2022/05/23 09:41:02;;;;;;;2.35;1.05;;;24.00;56.70;;;;;;5052329;28;20099;-82
2022/05/23 09:49:23;;;;;;;2.35;0.90;;;24.20;56.30;;;;;;5066741;28;20049;-82
2022/05/23 09:51:56;;;;;;;1.23;0.52;;;24.50;56.00;;;;;;5043976;28;20044;-83
2022/05/23 09:54:33;;;;;;;3.55;0.80;;;24.60;55.80;;;;;;5072540;28;20051;-82
2022/05/23 09:57:15;;;;;;;2.03;0.90;;;24.70;55.60;;;;;;5062852;28;20067;-82
2022/05/23 09:59:42;;;;;;;;;;;24.80;55.50;;;;;;5049377;28;20107;-82
2022/05/23 10:02:31;;;;;;;1.42;0.52;;;24.60;55.70;;;;;;5052100;28;19954;-81
2022/05/23 10:04:58;;;;;;;1.88;0.80;;;24.50;55.90;;;;;;5044562;28;20051;-78
2022/05/23 10:07:30;;;;;;;2.38;0.80;;;24.40;56.10;;;;;;5062243;28;20494;-81
2022/05/23 10:10:00;;;;;;;2.15;0.90;;;24.30;56.10;;;;;;5051279;28;20037;-76
2022/05/23 10:12:37;;;;;;;2.83;0.80;;;24.20;56.20;;;;;;5059091;28;20218;-77
2022/05/23 10:15:13;;;;;;;1.35;0.70;;;24.20;56.30;;;;;;5037836;28;20406;-77
2022/05/23 10:17:41;;;;;;;2.78;0.88;;;24.10;56.30;;;;;;5052830;28;20056;-76
2022/05/23 10:20:38;;;;;;;1.30;0.50;;;24.10;56.80;;;;;;5063248;28;20086;-77
2022/05/23 10:23:18;;;;;;;2.35;0.77;;;24.00;56.40;;;;;;5045100;28;20044;-77
2022/05/23 10:26:20;;;;;;;3.28;0.70;;;24.00;56.50;;;;;;5042431;28;20040;-80
2022/05/23 10:28:53;;;;;;;2.47;0.73;;;24.00;56.30;;;;;;5050182;28;20052;-80
2022/05/23 10:31:56;;;;;;;3.35;0.88;;;24.10;56.30;;;;;;5063663;28;20136;-79
2022/05/23 10:34:37;;;;;;;3.10;0.70;;;24.10;56.10;;;;;;5061519;28;20502;-79
2022/05/23 10:37:08;;;;;;;2.00;0.70;;;24.10;56.20;;;;;;5075298;28;20048;-78
2022/05/23 10:42:46;;;;;;;1.98;0.90;;;24.10;56.20;;;;;;5051533;28;20079;-85
2022/05/23 10:45:33;;;;;;;1.73;0.60;;;24.20;56.00;;;;;;5037748;28;20052;-76
2022/05/23 10:48:31;;;;;;;2.25;1.25;;;24.50;55.80;;;;;;5065458;28;20048;-78
2022/05/23 10:51:23;;;;;;;3.40;0.98;;;24.60;55.40;;;;;;5045707;28;20049;-87
2022/05/23 10:54:18;;;;;;;1.90;1.00;;;24.70;55.40;;;;;;5049872;28;20487;-85
2022/05/23 10:56:51;;;;;;;2.80;1.17;;;24.60;55.40;;;;;;5054118;28;20503;-86
2022/05/23 11:00:07;;;;;;;2.28;0.90;;;24.50;55.50;;;;;;5042954;28;20048;-84
2022/05/23 11:02:55;;;;;;;1.88;0.80;;;24.40;55.70;;;;;;5036435;28;20048;-79
2022/05/23 11:05:28;;;;;;;1.55;0.88;;;24.30;55.90;;;;;;5055093;28;20067;-79
2022/05/23 11:08:09;;;;;;;1.45;0.68;;;24.30;56.10;;;;;;5064400;28;20041;-79
2022/05/23 11:10:53;;;;;;;1.58;0.70;;;24.30;56.10;;;;;;5034760;28;20490;-77
2022/05/23 11:13:35;;;;;;;3.08;1.10;;;24.20;56.10;;;;;;5053158;28;20099;-77
2022/05/23 11:16:39;;;;;;;2.05;1.00;;;24.20;56.30;;;;;;5053609;28;20048;-77
2022/05/23 11:19:25;;;;;;;2.38;1.10;;;24.20;56.30;;;;;;5041149;28;20055;-79
2022/05/23 11:22:03;;;;;;;2.65;1.20;;;24.30;56.30;;;;;;5056374;28;20049;-78
2022/05/23 11:24:44;;;;;;;3.22;1.08;;;24.40;56.10;;;;;;5047088;28;20040;-78
2022/05/23 11:36:09;;;;;;;2.15;1.10;;;25.60;54.80;;;;;;5044629;28;20076;-79
2022/05/23 11:38:47;;;;;;;2.13;0.90;;;25.90;54.50;;;;;;5023886;28;20442;-78
2022/05/23 11:41:41;;;;;;;2.90;1.00;;;26.20;54.00;;;;;;5035781;28;20406;-79
2022/05/23 11:44:44;;;;;;;2.25;1.00;;;26.50;53.60;;;;;;5058967;28;20040;-76
2022/05/23 11:47:12;;;;;;;2.42;0.88;;;26.60;53.50;;;;;;5035955;28;20048;-76
2022/05/23 11:49:41;;;;;;;2.20;0.80;;;26.60;53.60;;;;;;5058025;28;20052;-76
2022/05/23 11:52:31;;;;;;;3.30;0.70;;;26.80;53.40;;;;;;5044839;28;20036;-76
2022/05/23 11:54:58;;;;;;;1.38;0.60;;;27.20;52.80;;;;;;5056957;28;20045;-77
2022/05/23 11:57:39;;;;;;;2.65;0.70;;;27.60;52.30;;;;;;5055161;28;20071;-77
2022/05/23 12:00:36;;;;;;;0.88;0.40;;;28.00;51.70;;;;;;5042733;28;20048;-78
2022/05/23 12:03:12;;;;;;;2.58;0.70;;;28.00;51.20;;;;;;5055458;28;20136;-84
2022/05/23 12:05:41;;;;;;;1.75;0.60;;;28.20;51.20;;;;;;5058253;28;20040;-79
2022/05/23 12:08:30;;;;;;;1.83;0.50;;;28.30;50.80;;;;;;5072966;28;20044;-79
2022/05/23 12:10:59;;;;;;;1.40;0.50;;;28.40;50.60;;;;;;5053981;28;20052;-80
2022/05/23 12:13:37;;;;;;;0.90;0.47;;;28.70;50.40;;;;;;5057822;28;20057;-81
2022/05/23 12:16:30;;;;;;;1.15;0.50;;;29.30;49.90;;;;;;5044507;28;20052;-82
2022/05/23 12:19:31;;;;;;;1.25;0.40;;;29.80;49.40;;;;;;5032313;28;20067;-81
2022/05/23 12:22:23;;;;;;;2.57;0.60;;;29.90;49.30;;;;;;5075978;28;20415;-80
2022/05/23 12:25:08;;;;;;;1.17;0.50;;;29.60;49.20;;;;;;5051678;28;20779;-78
2022/05/23 12:27:44;;;;;;;1.38;0.60;;;29.40;49.50;;;;;;5040294;28;20045;-77
2022/05/23 12:30:21;;;;;;;2.40;0.60;;;29.30;49.60;;;;;;5059857;28;20437;-83
2022/05/23 12:32:59;;;;;;;1.98;0.52;;;29.00;49.70;;;;;;5059577;28;20506;-82
2022/05/23 12:35:41;;;;;;;1.98;0.60;;;28.70;50.00;;;;;;5051074;28;20044;-78
2022/05/23 12:38:24;;;;;;;1.50;0.55;;;28.30;50.10;;;;;;5060263;28;20041;-77
2022/05/23 12:41:13;;;;;;;1.20;0.40;;;28.00;50.60;;;;;;5050991;28;20471;-78
2022/05/23 12:44:12;;;;;;;1.65;0.50;;;27.80;50.70;;;;;;5061861;28;20044;-76
2022/05/23 12:46:57;;;;;;;2.83;0.70;;;27.70;50.70;;;;;;5072005;28;20124;-77
2022/05/23 12:49:55;;;;;;;1.13;0.50;;;27.60;50.70;;;;;;5071469;28;20041;-76
2022/05/23 12:52:47;;;;;;;1.73;0.50;;;27.40;50.80;;;;;;5037612;28;20132;-77
2022/05/23 12:55:36;;;;;;;2.22;0.50;;;27.30;50.80;;;;;;5067203;28;20041;-78
2022/05/23 12:58:51;;;;;;;1.23;0.50;;;27.20;51.00;;;;;;5042297;28;20103;-79
2022/05/23 13:01:22;;;;;;;1.08;0.50;;;27.10;51.10;;;;;;5026529;28;20512;-77
2022/05/23 13:04:13;;;;;;;1.35;0.55;;;26.80;51.30;;;;;;5046110;28;20053;-80
2022/05/23 13:07:16;;;;;;;1.17;0.60;;;26.70;51.50;;;;;;5058690;28;20131;-79
2022/05/23 13:09:48;;;;;;;;;;;26.50;51.70;;;;;;5071099;28;20048;-76
2022/05/23 13:12:35;;;;;;;1.58;0.47;;;26.30;52.00;;;;;;5062431;28;20397;-76
2022/05/23 13:15:09;;;;;;;1.55;0.65;;;26.20;52.20;;;;;;5059006;28;20036;-81
2022/05/23 13:17:44;;;;;;;1.65;0.70;;;26.20;52.30;;;;;;5046291;28;20071;-75
2022/05/23 13:23:04;;;;;;;1.75;0.73;;;26.10;53.00;;;;;;5062270;28;20056;-83
2022/05/23 13:25:33;;;;;;;2.50;0.70;;;26.00;52.60;;;;;;5051587;28;20041;-80
2022/05/23 13:28:01;;;;;;;2.15;0.98;;;25.80;52.60;;;;;;5052048;28;20072;-80
2022/05/23 13:30:35;;;;;;;3.17;0.85;;;25.60;52.80;;;;;;5054616;28;20071;-78
2022/05/23 13:33:19;;;;;;;2.03;0.60;;;25.50;53.10;;;;;;5053750;28;20048;-79
2022/05/23 13:35:53;;;;;;;1.63;0.80;;;25.40;53.40;;;;;;5061790;28;20154;-81
2022/05/23 13:38:32;;;;;;;1.52;0.50;;;25.20;53.50;;;;;;5052818;28;20059;-78
2022/05/23 13:41:03;;;;;;;1.75;0.60;;;25.10;53.70;;;;;;5061538;28;20037;-78
2022/05/23 13:43:45;;;;;;;1.13;0.50;;;25.00;53.80;;;;;;5065147;28;20043;-78
2022/05/23 13:46:17;;;;;;;1.35;0.40;;;25.00;53.90;;;;;;5049338;28;20529;-80
2022/05/23 13:49:05;;;;;;;2.25;0.70;;;24.80;54.00;;;;;;5052290;28;20049;-79
2022/05/23 13:51:49;;;;;;;1.55;0.60;;;24.80;54.10;;;;;;5046890;28;20060;-84
2022/05/23 13:54:23;;;;;;;1.92;0.50;;;24.70;54.30;;;;;;5055426;28;20056;-84
2022/05/23 13:57:11;;;;;;;1.08;0.40;;;24.70;54.60;;;;;;5053258;28;20065;-87
2022/05/23 14:00:20;;;;;;;;;;;;;;;;;;;;;
2022/05/23 14:04:06;;;;;;;0.63;0.35;;;24.60;54.80;;;;;;5052753;28;20595;-88
2022/05/23 14:07:03;;;;;;;0.70;0.30;;;24.60;55.10;;;;;;5053707;28;20443;-86
2022/05/23 14:09:45;;;;;;;0.90;0.35;;;24.50;55.40;;;;;;5045152;28;20102;-82
2022/05/23 14:12:17;;;;;;;2.10;0.50;;;24.40;56.00;;;;;;5040480;28;20045;-82
2022/05/23 14:14:54;;;;;;;1.30;0.50;;;24.10;56.50;;;;;;5041583;28;20055;-81
2022/05/23 14:17:25;;;;;;;1.85;0.50;;;23.90;57.30;;;;;;5066758;28;20032;-82
2022/05/23 14:20:11;;;;;;;2.17;0.60;;;23.80;57.90;;;;;;5047050;28;20128;-86
2022/05/23 14:22:38;;;;;;;3.10;0.70;;;23.80;58.40;;;;;;5060371;28;20037;-87
2022/05/23 14:25:21;;;;;;;1.17;0.50;;;23.80;58.70;;;;;;5044160;28;20560;-78
2022/05/23 14:27:53;;;;;;;3.38;0.60;;;23.90;59.10;;;;;;5065677;28;20453;-84
2022/05/23 14:30:29;;;;;;;2.13;0.50;;;23.90;59.20;;;;;;5050935;28;20516;-86
2022/05/23 14:33:09;;;;;;;1.83;0.70;;;24.00;59.30;;;;;;5040027;28;20093;-87
2022/05/23 14:35:57;;;;;;;2.30;0.75;;;24.10;59.30;;;;;;5060215;28;20045;-83
2022/05/23 14:38:54;;;;;;;3.75;0.90;;;24.10;59.50;;;;;;5068712;28;20041;-84
2022/05/23 14:41:28;;;;;;;1.27;0.65;;;24.10;59.40;;;;;;5069285;28;20083;-84
2022/05/23 14:44:05;;;;;;;;;;;24.10;59.50;;;;;;5077602;28;20045;-83